^^
Station Historical Data
Daily Summary for December 1, 2017 Units:  Both    English   Metric
« Previous Day
Next Day »
Daily Weekly Monthly Yearly Custom
  High: Low: Average:
Temperature: 93.4 °F /  34.1 °C 64.8 °F /  18.2 °C 78 °F /  25.6 °C
Dew Point: 32.4 °F /  0.2 °C 10.8 °F /  -11.8 °C 24.5 °F /  -4.2 °C
Humidity: 28% 6% 15%
Wind Speed: 11.0mph /  17.7km/h - 1.7mph /  2.7km/h
Wind Gust: 15.0mph /  24.1km/h - -
Wind- - SW
Pressure: 30.22 in /  1023.2 hPa 30.04 in /  1017.2 hPa -
Precipitation: 0.00 in /  0 mm    
Historical Graphs
 
 
Tabular Data for December 1, 2017
Time Temperature Dew Point Pressure Wind Wind Speed Wind Gust Humidity Rainfall Rate (Hourly) solar Conditions
00:08 70.9 °F /  21.6 °C 31.3 °F /  -0.4 °C 30.22in /  1023.2hPa Calm   3.0mph /  4.8km/h 23% 0.00in /  0mm 0.0 W/m2
00:13 70.9 °F /  21.6 °C 31.3 °F /  -0.4 °C 30.21in /  1022.9hPa Calm   4.0mph /  6.4km/h 23% 0.00in /  0mm 0.0 W/m2
00:18 70.5 °F /  21.4 °C 30.9 °F /  -0.6 °C 30.21in /  1022.9hPa Calm   3.0mph /  4.8km/h 23% 0.00in /  0mm 0.0 W/m2
00:23 70.5 °F /  21.4 °C 30.9 °F /  -0.6 °C 30.21in /  1022.9hPa East 0.9mph /  1.4km/h 3.0mph /  4.8km/h 23% 0.00in /  0mm 0.0 W/m2
00:28 70.3 °F /  21.3 °C 30.7 °F /  -0.7 °C 30.21in /  1022.9hPa Calm   2.0mph /  3.2km/h 23% 0.00in /  0mm 0.0 W/m2
00:34 70.0 °F /  21.1 °C 30.6 °F /  -0.8 °C 30.21in /  1022.9hPa Calm   2.0mph /  3.2km/h 23% 0.00in /  0mm 0.0 W/m2
00:39 69.8 °F /  21 °C 30.4 °F /  -0.9 °C 30.21in /  1022.9hPa ENE 2.0mph /  3.2km/h 4.0mph /  6.4km/h 23% 0.00in /  0mm 0.0 W/m2
00:44 69.4 °F /  20.8 °C 31.1 °F /  -0.5 °C 30.21in /  1022.9hPa ENE 0.9mph /  1.4km/h 5.0mph /  8km/h 24% 0.00in /  0mm 0.0 W/m2
00:50 69.4 °F /  20.8 °C 31.1 °F /  -0.5 °C 30.21in /  1022.9hPa ENE 2.0mph /  3.2km/h 3.0mph /  4.8km/h 24% 0.00in /  0mm 0.0 W/m2
00:55 69.3 °F /  20.7 °C 30.9 °F /  -0.6 °C 30.21in /  1022.9hPa Calm   2.0mph /  3.2km/h 24% 0.00in /  0mm 0.0 W/m2
01:00 69.3 °F /  20.7 °C 30.9 °F /  -0.6 °C 30.21in /  1022.9hPa ESE 0.9mph /  1.4km/h 1.0mph /  1.6km/h 24% 0.00in /  0mm 0.0 W/m2
01:05 69.1 °F /  20.6 °C 30.7 °F /  -0.7 °C 30.21in /  1022.9hPa Calm   1.0mph /  1.6km/h 24% 0.00in /  0mm 0.0 W/m2
01:10 69.1 °F /  20.6 °C 30.7 °F /  -0.7 °C 30.21in /  1022.9hPa SE 0.9mph /  1.4km/h 3.0mph /  4.8km/h 24% 0.00in /  0mm 0.0 W/m2
01:20 68.9 °F /  20.5 °C 31.6 °F /  -0.2 °C 30.20in /  1022.6hPa Calm   1.0mph /  1.6km/h 25% 0.00in /  0mm 0.0 W/m2
01:25 68.7 °F /  20.4 °C 31.5 °F /  -0.3 °C 30.20in /  1022.6hPa Calm     25% 0.00in /  0mm 0.0 W/m2
01:31 68.5 °F /  20.3 °C 32.4 °F /  0.2 °C 30.20in /  1022.6hPa Calm     26% 0.00in /  0mm 0.0 W/m2
01:36 68.4 °F /  20.2 °C 32.2 °F /  0.1 °C 30.20in /  1022.6hPa Calm     26% 0.00in /  0mm 0.0 W/m2
01:41 68.2 °F /  20.1 °C 32.0 °F /  0 °C 30.20in /  1022.6hPa Calm     26% 0.00in /  0mm 0.0 W/m2
01:46 67.8 °F /  19.9 °C 31.6 °F /  -0.2 °C 30.19in /  1022.2hPa Calm     26% 0.00in /  0mm 0.0 W/m2
01:56 67.3 °F /  19.6 °C 32.2 °F /  0.1 °C 30.19in /  1022.2hPa SSE 0.9mph /  1.4km/h 1.0mph /  1.6km/h 27% 0.00in /  0mm 0.0 W/m2
02:01 66.9 °F /  19.4 °C 30.9 °F /  -0.6 °C 30.18in /  1021.9hPa Calm   2.0mph /  3.2km/h 26% 0.00in /  0mm 0.0 W/m2
02:11 66.4 °F /  19.1 °C 31.5 °F /  -0.3 °C 30.18in /  1021.9hPa Calm     27% 0.00in /  0mm 0.0 W/m2
02:16 66.0 °F /  18.9 °C 32.0 °F /  0 °C 30.17in /  1021.6hPa Calm     28% 0.00in /  0mm 0.0 W/m2
02:21 65.7 °F /  18.7 °C 31.6 °F /  -0.2 °C 30.17in /  1021.6hPa Calm     28% 0.00in /  0mm 0.0 W/m2
02:27 65.5 °F /  18.6 °C 31.5 °F /  -0.3 °C 30.17in /  1021.6hPa Calm   2.0mph /  3.2km/h 28% 0.00in /  0mm 0.0 W/m2
02:32 65.3 °F /  18.5 °C 31.3 °F /  -0.4 °C 30.17in /  1021.6hPa Calm   2.0mph /  3.2km/h 28% 0.00in /  0mm 0.0 W/m2
02:37 65.1 °F /  18.4 °C 31.3 °F /  -0.4 °C 30.17in /  1021.6hPa Calm     28% 0.00in /  0mm 0.0 W/m2
02:42 65.1 °F /  18.4 °C 31.3 °F /  -0.4 °C 30.17in /  1021.6hPa Calm   1.0mph /  1.6km/h 28% 0.00in /  0mm 0.0 W/m2
02:52 65.1 °F /  18.4 °C 31.3 °F /  -0.4 °C 30.17in /  1021.6hPa Calm   1.0mph /  1.6km/h 28% 0.00in /  0mm 0.0 W/m2
02:57 64.9 °F /  18.3 °C 30.2 °F /  -1 °C 30.17in /  1021.6hPa ENE 0.9mph /  1.4km/h 4.0mph /  6.4km/h 27% 0.00in /  0mm 0.0 W/m2
03:02 64.9 °F /  18.3 °C 30.2 °F /  -1 °C 30.17in /  1021.6hPa Calm   3.0mph /  4.8km/h 27% 0.00in /  0mm 0.0 W/m2
03:08 64.9 °F /  18.3 °C 30.2 °F /  -1 °C 30.17in /  1021.6hPa Calm   2.0mph /  3.2km/h 27% 0.00in /  0mm 0.0 W/m2
03:13 64.9 °F /  18.3 °C 30.2 °F /  -1 °C 30.17in /  1021.6hPa Calm     27% 0.00in /  0mm 0.0 W/m2
03:18 64.9 °F /  18.3 °C 30.2 °F /  -1 °C 30.17in /  1021.6hPa Calm   2.0mph /  3.2km/h 27% 0.00in /  0mm 0.0 W/m2
03:23 64.9 °F /  18.3 °C 30.2 °F /  -1 °C 30.17in /  1021.6hPa Calm   1.0mph /  1.6km/h 27% 0.00in /  0mm 0.0 W/m2
03:28 64.9 °F /  18.3 °C 30.2 °F /  -1 °C 30.17in /  1021.6hPa Calm   1.0mph /  1.6km/h 27% 0.00in /  0mm 0.0 W/m2
03:33 64.8 °F /  18.2 °C 30.0 °F /  -1.1 °C 30.17in /  1021.6hPa Calm   1.0mph /  1.6km/h 27% 0.00in /  0mm 0.0 W/m2
03:38 64.8 °F /  18.2 °C 30.0 °F /  -1.1 °C 30.17in /  1021.6hPa Calm   1.0mph /  1.6km/h 27% 0.00in /  0mm 0.0 W/m2
03:43 64.8 °F /  18.2 °C 30.0 °F /  -1.1 °C 30.17in /  1021.6hPa Calm     27% 0.00in /  0mm 0.0 W/m2
03:49 64.8 °F /  18.2 °C 30.0 °F /  -1.1 °C 30.17in /  1021.6hPa Calm   1.0mph /  1.6km/h 27% 0.00in /  0mm 0.0 W/m2
03:54 64.8 °F /  18.2 °C 30.0 °F /  -1.1 °C 30.17in /  1021.6hPa Calm     27% 0.00in /  0mm 0.0 W/m2
03:59 64.8 °F /  18.2 °C 29.1 °F /  -1.6 °C 30.17in /  1021.6hPa Calm   2.0mph /  3.2km/h 26% 0.00in /  0mm 0.0 W/m2
04:09 64.9 °F /  18.3 °C 29.3 °F /  -1.5 °C 30.16in /  1021.2hPa Calm   1.0mph /  1.6km/h 26% 0.00in /  0mm 0.0 W/m2
04:14 64.9 °F /  18.3 °C 29.3 °F /  -1.5 °C 30.16in /  1021.2hPa ENE 0.9mph /  1.4km/h 2.0mph /  3.2km/h 26% 0.00in /  0mm 0.0 W/m2
04:19 65.1 °F /  18.4 °C 28.4 °F /  -2 °C 30.16in /  1021.2hPa Calm   1.0mph /  1.6km/h 25% 0.00in /  0mm 0.0 W/m2
04:24 65.1 °F /  18.4 °C 28.4 °F /  -2 °C 30.16in /  1021.2hPa Calm   2.0mph /  3.2km/h 25% 0.00in /  0mm 0.0 W/m2
04:35 65.5 °F /  18.6 °C 28.8 °F /  -1.8 °C 30.16in /  1021.2hPa ESE 0.9mph /  1.4km/h 2.0mph /  3.2km/h 25% 0.00in /  0mm 0.0 W/m2
04:45 65.5 °F /  18.6 °C 29.7 °F /  -1.3 °C 30.17in /  1021.6hPa Calm   1.0mph /  1.6km/h 26% 0.00in /  0mm 0.0 W/m2
04:50 65.3 °F /  18.5 °C 28.6 °F /  -1.9 °C 30.17in /  1021.6hPa Calm   1.0mph /  1.6km/h 25% 0.00in /  0mm 0.0 W/m2
04:55 65.3 °F /  18.5 °C 29.5 °F /  -1.4 °C 30.17in /  1021.6hPa Calm     26% 0.00in /  0mm 0.0 W/m2
05:05 65.3 °F /  18.5 °C 29.5 °F /  -1.4 °C 30.16in /  1021.2hPa Calm     26% 0.00in /  0mm 0.0 W/m2
05:20 65.5 °F /  18.6 °C 29.7 °F /  -1.3 °C 30.16in /  1021.2hPa Calm     26% 0.00in /  0mm 0.0 W/m2
05:25 65.5 °F /  18.6 °C 29.7 °F /  -1.3 °C 30.16in /  1021.2hPa Calm     26% 0.00in /  0mm 0.0 W/m2
05:26 65.5 °F /  18.6 °C 29.7 °F /  -1.3 °C 30.16in /  1021.2hPa Calm   1.0mph /  1.6km/h 26% 0.00in /  0mm 0.0 W/m2
05:27 65.5 °F /  18.6 °C 29.7 °F /  -1.3 °C 30.16in /  1021.2hPa Calm   1.0mph /  1.6km/h 26% 0.00in /  0mm 0.0 W/m2
05:32 65.5 °F /  18.6 °C 29.7 °F /  -1.3 °C 30.16in /  1021.2hPa Calm     26% 0.00in /  0mm 0.0 W/m2
05:39 65.5 °F /  18.6 °C 29.7 °F /  -1.3 °C 30.16in /  1021.2hPa East 0.9mph /  1.4km/h 2.0mph /  3.2km/h 26% 0.00in /  0mm 0.0 W/m2
05:44 65.5 °F /  18.6 °C 28.8 °F /  -1.8 °C 30.17in /  1021.6hPa Calm   3.0mph /  4.8km/h 25% 0.00in /  0mm 0.0 W/m2
05:49 65.7 °F /  18.7 °C 27.9 °F /  -2.3 °C 30.16in /  1021.2hPa ENE 0.9mph /  1.4km/h 1.0mph /  1.6km/h 24% 0.00in /  0mm 0.0 W/m2
06:01 66.0 °F /  18.9 °C 27.1 °F /  -2.7 °C 30.16in /  1021.2hPa Calm   1.0mph /  1.6km/h 23% 0.00in /  0mm 0.0 W/m2
06:06 66.0 °F /  18.9 °C 26.1 °F /  -3.3 °C 30.16in /  1021.2hPa East 0.9mph /  1.4km/h 2.0mph /  3.2km/h 22% 0.00in /  0mm 7.0 W/m2
06:16 66.6 °F /  19.2 °C 24.3 °F /  -4.3 °C 30.16in /  1021.2hPa Calm   1.0mph /  1.6km/h 20% 0.00in /  0mm 12.0 W/m2
06:26 67.3 °F /  19.6 °C 27.1 °F /  -2.7 °C 30.16in /  1021.2hPa Calm   1.0mph /  1.6km/h 22% 0.00in /  0mm 21.0 W/m2
06:43 67.8 °F /  19.9 °C 28.6 °F /  -1.9 °C 30.17in /  1021.6hPa SW 0.9mph /  1.4km/h 1.0mph /  1.6km/h 23% 0.00in /  0mm 46.0 W/m2
06:49 67.8 °F /  19.9 °C 27.5 °F /  -2.5 °C 30.17in /  1021.6hPa Calm     22% 0.00in /  0mm 53.0 W/m2
07:04 68.4 °F /  20.2 °C 27.0 °F /  -2.8 °C 30.17in /  1021.6hPa Calm   1.0mph /  1.6km/h 21% 0.00in /  0mm 79.0 W/m2
07:09 68.7 °F /  20.4 °C 26.1 °F /  -3.3 °C 30.17in /  1021.6hPa Calm     20% 0.00in /  0mm 88.0 W/m2
07:19 69.8 °F /  21 °C 25.7 °F /  -3.5 °C 30.17in /  1021.6hPa SSW 2.9mph /  4.7km/h 6.0mph /  9.7km/h 19% 0.00in /  0mm 104.0 W/m2
07:25 70.5 °F /  21.4 °C 23.5 °F /  -4.7 °C 30.17in /  1021.6hPa Calm   3.0mph /  4.8km/h 17% 0.00in /  0mm 123.0 W/m2
07:30 71.2 °F /  21.8 °C 25.5 °F /  -3.6 °C 30.17in /  1021.6hPa SSE 2.0mph /  3.2km/h 2.0mph /  3.2km/h 18% 0.00in /  0mm 137.0 W/m2
07:35 71.8 °F /  22.1 °C 18.3 °F /  -7.6 °C 30.18in /  1021.9hPa ESE 0.9mph /  1.4km/h 4.0mph /  6.4km/h 13% 0.00in /  0mm 172.0 W/m2
07:45 73.0 °F /  22.8 °C 28.4 °F /  -2 °C 30.18in /  1021.9hPa Calm     19% 0.00in /  0mm 285.0 W/m2
07:50 73.6 °F /  23.1 °C 26.1 °F /  -3.3 °C 30.18in /  1021.9hPa ESE 2.9mph /  4.7km/h 3.0mph /  4.8km/h 17% 0.00in /  0mm 455.0 W/m2
07:55 74.7 °F /  23.7 °C 27.0 °F /  -2.8 °C 30.17in /  1021.6hPa Calm   2.0mph /  3.2km/h 17% 0.00in /  0mm 559.0 W/m2
08:00 75.9 °F /  24.4 °C 23.4 °F /  -4.8 °C 30.17in /  1021.6hPa Calm   3.0mph /  4.8km/h 14% 0.00in /  0mm 517.0 W/m2
08:03 76.5 °F /  24.7 °C 21.9 °F /  -5.6 °C 30.18in /  1021.9hPa Calm   2.0mph /  3.2km/h 13% 0.00in /  0mm 520.0 W/m2
08:08 77.4 °F /  25.2 °C 18.7 °F /  -7.4 °C 30.18in /  1021.9hPa Calm   1.0mph /  1.6km/h 11% 0.00in /  0mm 570.0 W/m2
08:14 78.1 °F /  25.6 °C 17.1 °F /  -8.3 °C 30.18in /  1021.9hPa Calm   4.0mph /  6.4km/h 10% 0.00in /  0mm 529.0 W/m2
08:19 78.6 °F /  25.9 °C 17.4 °F /  -8.1 °C 30.17in /  1021.6hPa Calm   3.0mph /  4.8km/h 10% 0.00in /  0mm 512.0 W/m2
08:24 79.5 °F /  26.4 °C 15.8 °F /  -9 °C 30.18in /  1021.9hPa Calm   1.0mph /  1.6km/h 9% 0.00in /  0mm 478.0 W/m2
08:30 80.2 °F /  26.8 °C 16.3 °F /  -8.7 °C 30.18in /  1021.9hPa ENE 0.9mph /  1.4km/h 2.0mph /  3.2km/h 9% 0.00in /  0mm 563.0 W/m2
08:35 80.6 °F /  27 °C 13.8 °F /  -10.1 °C 30.17in /  1021.6hPa Calm   1.0mph /  1.6km/h 8% 0.00in /  0mm 566.0 W/m2
08:40 81.0 °F /  27.2 °C 16.9 °F /  -8.4 °C 30.17in /  1021.6hPa Calm   1.0mph /  1.6km/h 9% 0.00in /  0mm 594.0 W/m2
08:45 81.1 °F /  27.3 °C 19.4 °F /  -7 °C 30.17in /  1021.6hPa East 4.0mph /  6.4km/h 4.0mph /  6.4km/h 10% 0.00in /  0mm 615.0 W/m2
08:50 81.3 °F /  27.4 °C 17.1 °F /  -8.3 °C 30.17in /  1021.6hPa Calm   2.0mph /  3.2km/h 9% 0.00in /  0mm 640.0 W/m2
08:55 81.9 °F /  27.7 °C 14.7 °F /  -9.6 °C 30.17in /  1021.6hPa NNW 0.9mph /  1.4km/h 4.0mph /  6.4km/h 8% 0.00in /  0mm 679.0 W/m2
09:00 82.6 °F /  28.1 °C 15.3 °F /  -9.3 °C 30.17in /  1021.6hPa North 4.0mph /  6.4km/h 5.0mph /  8km/h 8% 0.00in /  0mm 712.0 W/m2
09:11 83.7 °F /  28.7 °C 13.1 °F /  -10.5 °C 30.17in /  1021.6hPa Calm   1.0mph /  1.6km/h 7% 0.00in /  0mm 819.0 W/m2
09:21 84.6 °F /  29.2 °C 13.6 °F /  -10.2 °C 30.17in /  1021.6hPa Calm   3.0mph /  4.8km/h 7% 0.00in /  0mm 274.0 W/m2
09:31 84.4 °F /  29.1 °C 16.7 °F /  -8.5 °C 30.17in /  1021.6hPa Calm   1.0mph /  1.6km/h 8% 0.00in /  0mm 492.0 W/m2
09:36 84.6 °F /  29.2 °C 13.6 °F /  -10.2 °C 30.17in /  1021.6hPa North 2.9mph /  4.7km/h 4.0mph /  6.4km/h 7% 0.00in /  0mm 385.0 W/m2
09:41 84.6 °F /  29.2 °C 13.6 °F /  -10.2 °C 30.17in /  1021.6hPa Calm   4.0mph /  6.4km/h 7% 0.00in /  0mm 359.0 W/m2
09:57 84.9 °F /  29.4 °C 17.1 °F /  -8.3 °C 30.17in /  1021.6hPa NE 2.9mph /  4.7km/h 6.0mph /  9.7km/h 8% 0.00in /  0mm 399.0 W/m2
10:02 84.7 °F /  29.3 °C 16.9 °F /  -8.4 °C 30.17in /  1021.6hPa Calm   3.0mph /  4.8km/h 8% 0.00in /  0mm 508.0 W/m2
10:12 84.6 °F /  29.2 °C 16.9 °F /  -8.4 °C 30.17in /  1021.6hPa NNW 4.0mph /  6.4km/h 6.0mph /  9.7km/h 8% 0.00in /  0mm 271.0 W/m2
10:17 84.4 °F /  29.1 °C 16.7 °F /  -8.5 °C 30.17in /  1021.6hPa NNW 6.0mph /  9.7km/h 6.0mph /  9.7km/h 8% 0.00in /  0mm 230.0 W/m2
10:22 84.2 °F /  29 °C 19.2 °F /  -7.1 °C 30.17in /  1021.6hPa Calm   3.0mph /  4.8km/h 9% 0.00in /  0mm 243.0 W/m2
10:32 84.0 °F /  28.9 °C 19.0 °F /  -7.2 °C 30.17in /  1021.6hPa North 2.0mph /  3.2km/h 3.0mph /  4.8km/h 9% 0.00in /  0mm 306.0 W/m2
10:38 83.8 °F /  28.8 °C 21.4 °F /  -5.9 °C 30.17in /  1021.6hPa Calm   1.0mph /  1.6km/h 10% 0.00in /  0mm 288.0 W/m2
10:43 83.8 °F /  28.8 °C 21.4 °F /  -5.9 °C 30.17in /  1021.6hPa NNE 2.0mph /  3.2km/h 4.0mph /  6.4km/h 10% 0.00in /  0mm 362.0 W/m2
10:48 83.8 °F /  28.8 °C 21.4 °F /  -5.9 °C 30.16in /  1021.2hPa NNW 2.0mph /  3.2km/h 3.0mph /  4.8km/h 10% 0.00in /  0mm 466.0 W/m2
10:53 84.4 °F /  29.1 °C 24.1 °F /  -4.4 °C 30.16in /  1021.2hPa WNW 0.9mph /  1.4km/h 5.0mph /  8km/h 11% 0.00in /  0mm 657.0 W/m2
10:58 84.9 °F /  29.4 °C 22.3 °F /  -5.4 °C 30.16in /  1021.2hPa NNW 2.9mph /  4.7km/h 5.0mph /  8km/h 10% 0.00in /  0mm 1136.0 W/m2
11:03 85.5 °F /  29.7 °C 20.1 °F /  -6.6 °C 30.16in /  1021.2hPa NNW 2.9mph /  4.7km/h 7.0mph /  11.3km/h 9% 0.00in /  0mm 357.0 W/m2
11:19 85.5 °F /  29.7 °C 20.1 °F /  -6.6 °C 30.16in /  1021.2hPa WSW 0.9mph /  1.4km/h 6.0mph /  9.7km/h 9% 0.00in /  0mm 408.0 W/m2
11:24 85.5 °F /  29.7 °C 20.1 °F /  -6.6 °C 30.16in /  1021.2hPa NNE 2.0mph /  3.2km/h 6.0mph /  9.7km/h 9% 0.00in /  0mm 1234.0 W/m2
11:29 86.4 °F /  30.2 °C 18.1 °F /  -7.7 °C 30.15in /  1020.9hPa NE 2.0mph /  3.2km/h 9.0mph /  14.5km/h 8% 0.00in /  0mm 1273.0 W/m2
11:34 87.1 °F /  30.6 °C 21.4 °F /  -5.9 °C 30.15in /  1020.9hPa WNW 0.9mph /  1.4km/h 3.0mph /  4.8km/h 9% 0.00in /  0mm 1245.0 W/m2
11:39 87.6 °F /  30.9 °C 19.0 °F /  -7.2 °C 30.15in /  1020.9hPa North 4.9mph /  7.9km/h 10.0mph /  16.1km/h 8% 0.00in /  0mm 601.0 W/m2
11:44 88.0 °F /  31.1 °C 22.1 °F /  -5.5 °C 30.15in /  1020.9hPa SW 0.9mph /  1.4km/h 1.0mph /  1.6km/h 9% 0.00in /  0mm 675.0 W/m2
11:54 88.3 °F /  31.3 °C 16.5 °F /  -8.6 °C 30.15in /  1020.9hPa SW 0.9mph /  1.4km/h 8.0mph /  12.9km/h 7% 0.00in /  0mm 700.0 W/m2
11:59 88.0 °F /  31.1 °C 16.2 °F /  -8.8 °C 30.15in /  1020.9hPa SW 2.9mph /  4.7km/h 5.0mph /  8km/h 7% 0.00in /  0mm 497.0 W/m2
12:04 87.8 °F /  31 °C 16.2 °F /  -8.8 °C 30.15in /  1020.9hPa NNW 6.9mph /  11.1km/h 10.0mph /  16.1km/h 7% 0.00in /  0mm 469.0 W/m2
12:05 87.8 °F /  31 °C 16.2 °F /  -8.8 °C 30.15in /  1020.9hPa NNE 4.9mph /  7.9km/h 10.0mph /  16.1km/h 7% 0.00in /  0mm 473.0 W/m2
12:10 87.6 °F /  30.9 °C 16.0 °F /  -8.9 °C 30.14in /  1020.5hPa NE 0.9mph /  1.4km/h 3.0mph /  4.8km/h 7% 0.00in /  0mm 466.0 W/m2
12:16 87.4 °F /  30.8 °C 15.8 °F /  -9 °C 30.14in /  1020.5hPa SE 0.9mph /  1.4km/h 5.0mph /  8km/h 7% 0.00in /  0mm 413.0 W/m2
12:21 87.3 °F /  30.7 °C 12.2 °F /  -11 °C 30.14in /  1020.5hPa WSW 0.9mph /  1.4km/h 8.0mph /  12.9km/h 6% 0.00in /  0mm 292.0 W/m2
12:26 86.4 °F /  30.2 °C 11.5 °F /  -11.4 °C 30.14in /  1020.5hPa Calm   9.0mph /  14.5km/h 6% 0.00in /  0mm 207.0 W/m2
12:31 85.6 °F /  29.8 °C 14.5 °F /  -9.7 °C 30.13in /  1020.2hPa SW 2.0mph /  3.2km/h 5.0mph /  8km/h 7% 0.00in /  0mm 209.0 W/m2
12:36 85.3 °F /  29.6 °C 14.2 °F /  -9.9 °C 30.13in /  1020.2hPa Calm   4.0mph /  6.4km/h 7% 0.00in /  0mm 234.0 W/m2
12:41 85.3 °F /  29.6 °C 14.2 °F /  -9.9 °C 30.13in /  1020.2hPa NW 6.9mph /  11.1km/h 8.0mph /  12.9km/h 7% 0.00in /  0mm 248.0 W/m2
12:46 85.3 °F /  29.6 °C 14.2 °F /  -9.9 °C 30.13in /  1020.2hPa Calm   4.0mph /  6.4km/h 7% 0.00in /  0mm 271.0 W/m2
12:51 85.3 °F /  29.6 °C 10.8 °F /  -11.8 °C 30.13in /  1020.2hPa WSW 2.9mph /  4.7km/h 7.0mph /  11.3km/h 6% 0.00in /  0mm 301.0 W/m2
12:56 85.3 °F /  29.6 °C 14.2 °F /  -9.9 °C 30.13in /  1020.2hPa WNW 0.9mph /  1.4km/h 3.0mph /  4.8km/h 7% 0.00in /  0mm 309.0 W/m2
13:01 85.5 °F /  29.7 °C 17.4 °F /  -8.1 °C 30.12in /  1019.9hPa WSW 2.9mph /  4.7km/h 7.0mph /  11.3km/h 8% 0.00in /  0mm 343.0 W/m2
13:06 85.5 °F /  29.7 °C 17.4 °F /  -8.1 °C 30.12in /  1019.9hPa Calm   5.0mph /  8km/h 8% 0.00in /  0mm 483.0 W/m2
13:12 85.6 °F /  29.8 °C 17.6 °F /  -8 °C 30.12in /  1019.9hPa North 4.9mph /  7.9km/h 5.0mph /  8km/h 8% 0.00in /  0mm 378.0 W/m2
13:17 86.0 °F /  30 °C 14.7 °F /  -9.6 °C 30.12in /  1019.9hPa NW 4.0mph /  6.4km/h 7.0mph /  11.3km/h 7% 0.00in /  0mm 461.0 W/m2
13:22 86.2 °F /  30.1 °C 11.5 °F /  -11.4 °C 30.12in /  1019.9hPa NW 4.0mph /  6.4km/h 6.0mph /  9.7km/h 6% 0.00in /  0mm 485.0 W/m2
13:27 86.5 °F /  30.3 °C 15.3 °F /  -9.3 °C 30.12in /  1019.9hPa Calm   1.0mph /  1.6km/h 7% 0.00in /  0mm 524.0 W/m2
13:32 87.1 °F /  30.6 °C 15.6 °F /  -9.1 °C 30.11in /  1019.5hPa NNW 4.0mph /  6.4km/h 6.0mph /  9.7km/h 7% 0.00in /  0mm 601.0 W/m2
13:42 88.0 °F /  31.1 °C 16.2 °F /  -8.8 °C 30.11in /  1019.5hPa WNW 0.9mph /  1.4km/h 5.0mph /  8km/h 7% 0.00in /  0mm 394.0 W/m2
13:47 87.6 °F /  30.9 °C 19.0 °F /  -7.2 °C 30.11in /  1019.5hPa Calm   7.0mph /  11.3km/h 8% 0.00in /  0mm 316.0 W/m2
13:52 87.6 °F /  30.9 °C 19.0 °F /  -7.2 °C 30.11in /  1019.5hPa Calm   3.0mph /  4.8km/h 8% 0.00in /  0mm 297.0 W/m2
13:57 87.4 °F /  30.8 °C 18.9 °F /  -7.3 °C 30.11in /  1019.5hPa NNW 2.9mph /  4.7km/h 5.0mph /  8km/h 8% 0.00in /  0mm 332.0 W/m2
14:03 87.3 °F /  30.7 °C 21.6 °F /  -5.8 °C 30.11in /  1019.5hPa NW 0.9mph /  1.4km/h 3.0mph /  4.8km/h 9% 0.00in /  0mm 385.0 W/m2
14:13 86.9 °F /  30.5 °C 23.7 °F /  -4.6 °C 30.11in /  1019.5hPa NNW 0.9mph /  1.4km/h 3.0mph /  4.8km/h 10% 0.00in /  0mm 274.0 W/m2
14:18 86.7 °F /  30.4 °C 23.7 °F /  -4.6 °C 30.10in /  1019.2hPa Calm   5.0mph /  8km/h 10% 0.00in /  0mm 274.0 W/m2
14:23 86.5 °F /  30.3 °C 23.5 °F /  -4.7 °C 30.10in /  1019.2hPa NNW 2.9mph /  4.7km/h 8.0mph /  12.9km/h 10% 0.00in /  0mm 315.0 W/m2
14:33 86.0 °F /  30 °C 23.2 °F /  -4.9 °C 30.10in /  1019.2hPa West 2.0mph /  3.2km/h 5.0mph /  8km/h 10% 0.00in /  0mm 338.0 W/m2
14:38 86.2 °F /  30.1 °C 23.2 °F /  -4.9 °C 30.10in /  1019.2hPa West 2.9mph /  4.7km/h 5.0mph /  8km/h 10% 0.00in /  0mm 401.0 W/m2
14:43 86.7 °F /  30.4 °C 21.2 °F /  -6 °C 30.10in /  1019.2hPa ENE 0.9mph /  1.4km/h 4.0mph /  6.4km/h 9% 0.00in /  0mm 875.0 W/m2
14:48 87.4 °F /  30.8 °C 28.6 °F /  -1.9 °C 30.09in /  1018.8hPa ENE 6.9mph /  11.1km/h 12.0mph /  19.3km/h 12% 0.00in /  0mm 1113.0 W/m2
14:53 88.5 °F /  31.4 °C 27.3 °F /  -2.6 °C 30.09in /  1018.8hPa WNW 2.9mph /  4.7km/h 9.0mph /  14.5km/h 11% 0.00in /  0mm 722.0 W/m2
15:09 90.0 °F /  32.2 °C 28.4 °F /  -2 °C 30.08in /  1018.5hPa North 4.9mph /  7.9km/h 10.0mph /  16.1km/h 11% 0.00in /  0mm 1076.0 W/m2
15:14 89.8 °F /  32.1 °C 28.2 °F /  -2.1 °C 30.08in /  1018.5hPa WNW 4.9mph /  7.9km/h 7.0mph /  11.3km/h 11% 0.00in /  0mm 1076.0 W/m2
15:19 89.8 °F /  32.1 °C 28.2 °F /  -2.1 °C 30.08in /  1018.5hPa NNW 6.9mph /  11.1km/h 11.0mph /  17.7km/h 11% 0.00in /  0mm 921.0 W/m2
15:24 90.0 °F /  32.2 °C 28.4 °F /  -2 °C 30.08in /  1018.5hPa West 6.9mph /  11.1km/h 10.0mph /  16.1km/h 11% 0.00in /  0mm 879.0 W/m2
15:29 90.1 °F /  32.3 °C 26.2 °F /  -3.2 °C 30.07in /  1018.2hPa WNW 0.9mph /  1.4km/h 5.0mph /  8km/h 10% 0.00in /  0mm 884.0 W/m2
15:39 91.0 °F /  32.8 °C 27.0 °F /  -2.8 °C 30.06in /  1017.8hPa NNW 4.0mph /  6.4km/h 5.0mph /  8km/h 10% 0.00in /  0mm 905.0 W/m2
15:45 92.5 °F /  33.6 °C 25.5 °F /  -3.6 °C 30.07in /  1018.2hPa NW 4.0mph /  6.4km/h 10.0mph /  16.1km/h 9% 0.00in /  0mm 882.0 W/m2
15:51 93.4 °F /  34.1 °C 26.1 °F /  -3.3 °C 30.06in /  1017.8hPa North 8.1mph /  13km/h 9.0mph /  14.5km/h 9% 0.00in /  0mm 861.0 W/m2
15:56 93.0 °F /  33.9 °C 25.9 °F /  -3.4 °C 30.06in /  1017.8hPa North 8.1mph /  13km/h 10.0mph /  16.1km/h 9% 0.00in /  0mm 881.0 W/m2
16:01 92.1 °F /  33.4 °C 27.7 °F /  -2.4 °C 30.06in /  1017.8hPa NNW 4.0mph /  6.4km/h 8.0mph /  12.9km/h 10% 0.00in /  0mm 364.0 W/m2
16:06 91.6 °F /  33.1 °C 27.3 °F /  -2.6 °C 30.06in /  1017.8hPa WNW 8.1mph /  13km/h 13.0mph /  20.9km/h 10% 0.00in /  0mm 234.0 W/m2
16:11 90.9 °F /  32.7 °C 26.8 °F /  -2.9 °C 30.06in /  1017.8hPa NNW 2.9mph /  4.7km/h 6.0mph /  9.7km/h 10% 0.00in /  0mm 272.0 W/m2
16:16 90.3 °F /  32.4 °C 26.4 °F /  -3.1 °C 30.06in /  1017.8hPa NW 4.9mph /  7.9km/h 13.0mph /  20.9km/h 10% 0.00in /  0mm 362.0 W/m2
16:21 89.8 °F /  32.1 °C 23.4 °F /  -4.8 °C 30.05in /  1017.5hPa NW 2.0mph /  3.2km/h 8.0mph /  12.9km/h 9% 0.00in /  0mm 353.0 W/m2
16:31 89.6 °F /  32 °C 25.9 °F /  -3.4 °C 30.05in /  1017.5hPa NW 0.9mph /  1.4km/h 2.0mph /  3.2km/h 10% 0.00in /  0mm 234.0 W/m2
16:36 89.8 °F /  32.1 °C 25.9 °F /  -3.4 °C 30.05in /  1017.5hPa WSW 0.9mph /  1.4km/h 4.0mph /  6.4km/h 10% 0.00in /  0mm 195.0 W/m2
16:41 89.2 °F /  31.8 °C 27.9 °F /  -2.3 °C 30.05in /  1017.5hPa WSW 2.0mph /  3.2km/h 7.0mph /  11.3km/h 11% 0.00in /  0mm 251.0 W/m2
16:47 88.7 °F /  31.5 °C 25.2 °F /  -3.8 °C 30.05in /  1017.5hPa NNW 6.0mph /  9.7km/h 9.0mph /  14.5km/h 10% 0.00in /  0mm 422.0 W/m2
16:52 88.7 °F /  31.5 °C 27.5 °F /  -2.5 °C 30.05in /  1017.5hPa NNW 0.9mph /  1.4km/h 7.0mph /  11.3km/h 11% 0.00in /  0mm 612.0 W/m2
17:02 90.1 °F /  32.3 °C 28.6 °F /  -1.9 °C 30.05in /  1017.5hPa West 2.0mph /  3.2km/h 10.0mph /  16.1km/h 11% 0.00in /  0mm 596.0 W/m2
17:07 90.9 °F /  32.7 °C 26.8 °F /  -2.9 °C 30.04in /  1017.2hPa North 8.1mph /  13km/h 8.1mph /  13km/h 10% 0.00in /  0mm 483.0 W/m2
17:28 90.1 °F /  32.3 °C 28.6 °F /  -1.9 °C 30.04in /  1017.2hPa NNW 10.1mph /  16.3km/h 10.1mph /  16.3km/h 11% 0.00in /  0mm 461.0 W/m2
17:33 89.4 °F /  31.9 °C 28.0 °F /  -2.2 °C 30.04in /  1017.2hPa NNW 4.0mph /  6.4km/h 10.0mph /  16.1km/h 11% 0.00in /  0mm 135.0 W/m2
17:38 88.9 °F /  31.6 °C 27.5 °F /  -2.5 °C 30.05in /  1017.5hPa West 0.9mph /  1.4km/h 7.0mph /  11.3km/h 11% 0.00in /  0mm 176.0 W/m2
17:43 88.9 °F /  31.6 °C 29.7 °F /  -1.3 °C 30.05in /  1017.5hPa NW 2.9mph /  4.7km/h 9.0mph /  14.5km/h 12% 0.00in /  0mm 380.0 W/m2
17:53 89.2 °F /  31.8 °C 27.9 °F /  -2.3 °C 30.05in /  1017.5hPa Calm   7.0mph /  11.3km/h 11% 0.00in /  0mm 373.0 W/m2
18:03 89.8 °F /  32.1 °C 25.9 °F /  -3.4 °C 30.05in /  1017.5hPa NNE 4.9mph /  7.9km/h 8.0mph /  12.9km/h 10% 0.00in /  0mm 139.0 W/m2
18:14 89.4 °F /  31.9 °C 28.0 °F /  -2.2 °C 30.06in /  1017.8hPa WNW 0.9mph /  1.4km/h 6.0mph /  9.7km/h 11% 0.00in /  0mm 306.0 W/m2
18:19 89.2 °F /  31.8 °C 25.5 °F /  -3.6 °C 30.06in /  1017.8hPa West 2.0mph /  3.2km/h 10.0mph /  16.1km/h 10% 0.00in /  0mm 294.0 W/m2
18:24 88.5 °F /  31.4 °C 25.0 °F /  -3.9 °C 30.06in /  1017.8hPa ENE 0.9mph /  1.4km/h 3.0mph /  4.8km/h 10% 0.00in /  0mm 183.0 W/m2
18:29 88.3 °F /  31.3 °C 24.8 °F /  -4 °C 30.06in /  1017.8hPa WSW 8.9mph /  14.3km/h 15.0mph /  24.1km/h 10% 0.00in /  0mm 107.0 W/m2
18:34 87.4 °F /  30.8 °C 21.7 °F /  -5.7 °C 30.06in /  1017.8hPa NW 2.0mph /  3.2km/h 7.0mph /  11.3km/h 9% 0.00in /  0mm 81.0 W/m2
18:39 87.1 °F /  30.6 °C 21.4 °F /  -5.9 °C 30.06in /  1017.8hPa West 6.0mph /  9.7km/h 7.0mph /  11.3km/h 9% 0.00in /  0mm 62.0 W/m2
18:44 86.7 °F /  30.4 °C 23.7 °F /  -4.6 °C 30.07in /  1018.2hPa WNW 2.0mph /  3.2km/h 3.0mph /  4.8km/h 10% 0.00in /  0mm 51.0 W/m2
18:49 86.2 °F /  30.1 °C 20.7 °F /  -6.3 °C 30.07in /  1018.2hPa North 0.9mph /  1.4km/h 8.0mph /  12.9km/h 9% 0.00in /  0mm 46.0 W/m2
18:54 85.5 °F /  29.7 °C 28.9 °F /  -1.7 °C 30.07in /  1018.2hPa West 6.0mph /  9.7km/h 11.0mph /  17.7km/h 13% 0.00in /  0mm 42.0 W/m2
19:00 84.4 °F /  29.1 °C 30.0 °F /  -1.1 °C 30.07in /  1018.2hPa NNW 11.0mph /  17.7km/h 11.0mph /  17.7km/h 14% 0.00in /  0mm 35.0 W/m2
19:05 83.5 °F /  28.6 °C 30.9 °F /  -0.6 °C 30.08in /  1018.5hPa NW 11.0mph /  17.7km/h 15.0mph /  24.1km/h 15% 0.00in /  0mm 28.0 W/m2
19:10 82.8 °F /  28.2 °C 30.4 °F /  -0.9 °C 30.08in /  1018.5hPa NNW 2.9mph /  4.7km/h 10.0mph /  16.1km/h 15% 0.00in /  0mm 23.0 W/m2
19:15 82.0 °F /  27.8 °C 31.5 °F /  -0.3 °C 30.08in /  1018.5hPa NNE 6.9mph /  11.1km/h 8.0mph /  12.9km/h 16% 0.00in /  0mm 14.0 W/m2
19:20 81.7 °F /  27.6 °C 31.1 °F /  -0.5 °C 30.08in /  1018.5hPa North 4.9mph /  7.9km/h 9.0mph /  14.5km/h 16% 0.00in /  0mm 9.0 W/m2
19:30 81.1 °F /  27.3 °C 30.7 °F /  -0.7 °C 30.08in /  1018.5hPa NNW 6.0mph /  9.7km/h 12.0mph /  19.3km/h 16% 0.00in /  0mm 0.0 W/m2
19:35 80.8 °F /  27.1 °C 31.8 °F /  -0.1 °C 30.09in /  1018.8hPa NNW 4.0mph /  6.4km/h 6.0mph /  9.7km/h 17% 0.00in /  0mm 0.0 W/m2
19:41 80.4 °F /  26.9 °C 30.2 °F /  -1 °C 30.09in /  1018.8hPa NW 6.0mph /  9.7km/h 10.0mph /  16.1km/h 16% 0.00in /  0mm 0.0 W/m2
19:46 80.2 °F /  26.8 °C 31.5 °F /  -0.3 °C 30.09in /  1018.8hPa NNW 4.0mph /  6.4km/h 7.0mph /  11.3km/h 17% 0.00in /  0mm 0.0 W/m2
19:51 80.1 °F /  26.7 °C 31.3 °F /  -0.4 °C 30.10in /  1019.2hPa Calm   3.0mph /  4.8km/h 17% 0.00in /  0mm 0.0 W/m2
20:01 79.5 °F /  26.4 °C 30.9 °F /  -0.6 °C 30.10in /  1019.2hPa Calm   8.0mph /  12.9km/h 17% 0.00in /  0mm 0.0 W/m2
20:06 79.3 °F /  26.3 °C 32.2 °F /  0.1 °C 30.10in /  1019.2hPa NW 2.0mph /  3.2km/h 3.0mph /  4.8km/h 18% 0.00in /  0mm 0.0 W/m2
20:11 79.0 °F /  26.1 °C 31.8 °F /  -0.1 °C 30.10in /  1019.2hPa WSW 0.9mph /  1.4km/h 2.0mph /  3.2km/h 18% 0.00in /  0mm 0.0 W/m2
20:16 79.0 °F /  26.1 °C 31.8 °F /  -0.1 °C 30.11in /  1019.5hPa Calm   1.0mph /  1.6km/h 18% 0.00in /  0mm 0.0 W/m2
20:21 78.6 °F /  25.9 °C 31.6 °F /  -0.2 °C 30.11in /  1019.5hPa WSW 2.0mph /  3.2km/h 2.0mph /  3.2km/h 18% 0.00in /  0mm 0.0 W/m2
20:32 78.3 °F /  25.7 °C 21.6 °F /  -5.8 °C 30.11in /  1019.5hPa WSW 2.0mph /  3.2km/h 3.0mph /  4.8km/h 12% 0.00in /  0mm 0.0 W/m2
20:37 78.3 °F /  25.7 °C 21.6 °F /  -5.8 °C 30.12in /  1019.9hPa WSW 2.0mph /  3.2km/h 6.0mph /  9.7km/h 12% 0.00in /  0mm 0.0 W/m2
20:48 77.9 °F /  25.5 °C 19.2 °F /  -7.1 °C 30.12in /  1019.9hPa Calm   1.0mph /  1.6km/h 11% 0.00in /  0mm 0.0 W/m2
20:58 77.4 °F /  25.2 °C 18.7 °F /  -7.4 °C 30.12in /  1019.9hPa West 0.9mph /  1.4km/h 5.0mph /  8km/h 11% 0.00in /  0mm 0.0 W/m2
21:03 77.2 °F /  25.1 °C 18.7 °F /  -7.4 °C 30.13in /  1020.2hPa Calm   1.0mph /  1.6km/h 11% 0.00in /  0mm 0.0 W/m2
21:24 75.9 °F /  24.4 °C 21.6 °F /  -5.8 °C 30.13in /  1020.2hPa Calm   2.0mph /  3.2km/h 13% 0.00in /  0mm 0.0 W/m2
21:29 75.6 °F /  24.2 °C 21.2 °F /  -6 °C 30.14in /  1020.5hPa Calm     13% 0.00in /  0mm 0.0 W/m2
21:34 75.4 °F /  24.1 °C 22.8 °F /  -5.1 °C 30.13in /  1020.2hPa Calm   1.0mph /  1.6km/h 14% 0.00in /  0mm 0.0 W/m2
21:39 74.8 °F /  23.8 °C 22.5 °F /  -5.3 °C 30.14in /  1020.5hPa Calm   1.0mph /  1.6km/h 14% 0.00in /  0mm 0.0 W/m2
21:44 74.5 °F /  23.6 °C 22.1 °F /  -5.5 °C 30.14in /  1020.5hPa Calm   1.0mph /  1.6km/h 14% 0.00in /  0mm 0.0 W/m2
21:49 74.1 °F /  23.4 °C 23.5 °F /  -4.7 °C 30.14in /  1020.5hPa SW 2.9mph /  4.7km/h 4.0mph /  6.4km/h 15% 0.00in /  0mm 0.0 W/m2
21:54 74.1 °F /  23.4 °C 23.5 °F /  -4.7 °C 30.14in /  1020.5hPa SW 2.9mph /  4.7km/h 4.0mph /  6.4km/h 15% 0.00in /  0mm 0.0 W/m2
22:11 74.5 °F /  23.6 °C 22.1 °F /  -5.5 °C 30.15in /  1020.9hPa Calm   4.0mph /  6.4km/h 14% 0.00in /  0mm 0.0 W/m2
22:22 74.1 °F /  23.4 °C 21.9 °F /  -5.6 °C 30.15in /  1020.9hPa WSW 2.0mph /  3.2km/h 4.0mph /  6.4km/h 14% 0.00in /  0mm 0.0 W/m2
22:32 74.3 °F /  23.5 °C 22.1 °F /  -5.5 °C 30.15in /  1020.9hPa West 2.9mph /  4.7km/h 5.0mph /  8km/h 14% 0.00in /  0mm 0.0 W/m2
22:37 74.1 °F /  23.4 °C 21.9 °F /  -5.6 °C 30.15in /  1020.9hPa Calm   2.0mph /  3.2km/h 14% 0.00in /  0mm 0.0 W/m2
22:42 73.9 °F /  23.3 °C 21.7 °F /  -5.7 °C 30.15in /  1020.9hPa Calm   4.0mph /  6.4km/h 14% 0.00in /  0mm 0.0 W/m2
22:53 73.6 °F /  23.1 °C 21.4 °F /  -5.9 °C 30.15in /  1020.9hPa Calm   1.0mph /  1.6km/h 14% 0.00in /  0mm 0.0 W/m2
22:58 73.0 °F /  22.8 °C 22.6 °F /  -5.2 °C 30.15in /  1020.9hPa Calm     15% 0.00in /  0mm 0.0 W/m2
23:03 72.5 °F /  22.5 °C 22.3 °F /  -5.4 °C 30.15in /  1020.9hPa Calm     15% 0.00in /  0mm 0.0 W/m2
23:08 72.0 °F /  22.2 °C 23.4 °F /  -4.8 °C 30.15in /  1020.9hPa Calm     16% 0.00in /  0mm 0.0 W/m2
23:18 70.7 °F /  21.5 °C 22.3 °F /  -5.4 °C 30.15in /  1020.9hPa Calm     16% 0.00in /  0mm 0.0 W/m2
23:24 70.2 °F /  21.2 °C 23.4 °F /  -4.8 °C 30.15in /  1020.9hPa Calm   1.0mph /  1.6km/h 17% 0.00in /  0mm 0.0 W/m2
23:29 69.4 °F /  20.8 °C 22.6 °F /  -5.2 °C 30.15in /  1020.9hPa Calm     17% 0.00in /  0mm 0.0 W/m2
23:34 68.9 °F /  20.5 °C 22.3 °F /  -5.4 °C 30.15in /  1020.9hPa Calm   3.0mph /  4.8km/h 17% 0.00in /  0mm 0.0 W/m2
23:39 68.4 °F /  20.2 °C 23.2 °F /  -4.9 °C 30.15in /  1020.9hPa Calm   2.0mph /  3.2km/h 18% 0.00in /  0mm 0.0 W/m2
23:44 67.8 °F /  19.9 °C 22.8 °F /  -5.1 °C 30.15in /  1020.9hPa Calm   1.0mph /  1.6km/h 18% 0.00in /  0mm 0.0 W/m2
23:49 67.6 °F /  19.8 °C 22.6 °F /  -5.2 °C 30.15in /  1020.9hPa Calm   2.0mph /  3.2km/h 18% 0.00in /  0mm 0.0 W/m2
23:54 67.6 °F /  19.8 °C 21.2 °F /  -6 °C 30.14in /  1020.5hPa Calm   1.0mph /  1.6km/h 17% 0.00in /  0mm 0.0 W/m2
23:59 67.6 °F /  19.8 °C 21.2 °F /  -6 °C 30.14in /  1020.5hPa SW 2.9mph /  4.7km/h 3.0mph /  4.8km/h 17% 0.00in /  0mm 0.0 W/m2
Olympia, Windhoek, Namibia
Compliments of Weather Underground - 3 mb